createdAt,value
2018-04-01T00:01:55.475Z,58.07
2018-04-01T00:04:24.028Z,52.43
2018-04-01T00:06:53.741Z,53.77
2018-04-01T00:09:22.499Z,50.30
2018-04-01T00:11:50.999Z,47.90
2018-04-01T00:14:19.537Z,47.57
2018-04-01T00:16:50.039Z,46.63
2018-04-01T00:19:18.606Z,43.37
2018-04-01T00:21:47.074Z,45.53
2018-04-01T00:24:15.856Z,46.27
2018-04-01T00:26:44.647Z,45.93
2018-04-01T00:29:13.143Z,43.60
2018-04-01T00:31:41.598Z,44.50
2018-04-01T00:34:10.106Z,44.13
2018-04-01T00:36:38.879Z,45.30
2018-04-01T00:39:07.390Z,41.13
2018-04-01T00:41:36.822Z,40.07
2018-04-01T00:44:06.667Z,42.33
2018-04-01T00:46:35.290Z,41.80
2018-04-01T00:49:04.519Z,44.50
2018-04-01T00:51:33.004Z,43.07
2018-04-01T00:54:01.714Z,40.83
2018-04-01T00:56:30.422Z,41.97
2018-04-01T00:58:58.875Z,45.63
2018-04-01T01:01:27.364Z,43.17
2018-04-01T01:03:55.919Z,39.67
2018-04-01T01:06:25.446Z,49.80
2018-04-01T01:08:53.906Z,43.87
2018-04-01T01:11:23.106Z,48.83
2018-04-01T01:13:52.025Z,50.20
2018-04-01T01:16:20.519Z,48.33
2018-04-01T01:18:49.253Z,46.00
2018-04-01T01:21:17.870Z,57.40
2018-04-01T01:23:47.098Z,56.23
2018-04-01T01:26:15.570Z,52.13
2018-04-01T01:28:44.363Z,52.33
2018-04-01T01:31:13.096Z,59.73
2018-04-01T01:33:42.315Z,57.27
2018-04-01T01:36:10.786Z,49.70
2018-04-01T01:38:39.223Z,58.53
2018-04-01T01:41:07.734Z,52.40
2018-04-01T01:43:37.016Z,59.17
2018-04-01T01:46:05.702Z,52.87
2018-04-01T01:48:34.142Z,52.50
2018-04-01T01:51:02.604Z,54.73
2018-04-01T01:53:31.063Z,51.33
2018-04-01T01:56:00.659Z,51.23
2018-04-01T01:58:29.902Z,52.03
2018-04-01T02:00:58.366Z,49.23
2018-04-01T02:03:27.274Z,48.17
2018-04-01T02:05:55.887Z,49.00
2018-04-01T02:08:24.377Z,51.43
2018-04-01T02:10:53.074Z,46.60
2018-04-01T02:13:22.283Z,48.53
2018-04-01T02:15:50.987Z,46.33
2018-04-01T02:18:19.447Z,49.10
2018-04-01T02:20:48.202Z,46.87
2018-04-01T02:23:17.834Z,50.10
2018-04-01T02:25:47.055Z,47.33
2018-04-01T02:28:15.578Z,46.67
2018-04-01T02:30:44.091Z,41.40
2018-04-01T02:33:13.583Z,52.60
2018-04-01T02:35:42.044Z,47.83
2018-04-01T02:38:12.008Z,45.37
2018-04-01T02:40:40.443Z,38.60
2018-04-01T02:43:09.227Z,41.27
2018-04-01T02:45:37.683Z,43.20
2018-04-01T02:48:06.192Z,43.77
2018-04-01T02:50:34.903Z,40.33
2018-04-01T02:53:04.142Z,36.10
2018-04-01T02:55:32.889Z,41.07
2018-04-01T02:58:02.118Z,37.00
2018-04-01T03:00:30.963Z,37.97
2018-04-01T03:03:00.200Z,43.10
2018-04-01T03:05:28.647Z,38.40
2018-04-01T03:07:58.127Z,39.00
2018-04-01T03:10:26.586Z,39.67
2018-04-01T03:12:55.107Z,37.63
2018-04-01T03:15:23.548Z,36.47
2018-04-01T03:17:52.363Z,38.63
2018-04-01T03:20:20.853Z,36.50
2018-04-01T03:22:50.115Z,37.00
2018-04-01T03:25:18.959Z,34.67
2018-04-01T03:27:48.206Z,35.17
2018-04-01T03:30:16.707Z,33.17
2018-04-01T03:32:46.110Z,31.23
2018-04-01T03:35:15.044Z,32.70
2018-04-01T03:37:43.826Z,35.13
2018-04-01T03:40:12.436Z,33.33
2018-04-01T03:42:40.911Z,37.90
2018-04-01T03:45:09.447Z,36.80
2018-04-01T03:47:38.197Z,39.97
2018-04-01T03:50:07.468Z,33.17
2018-04-01T03:52:35.924Z,36.03
2018-04-01T03:55:04.456Z,35.17
2018-04-01T03:57:32.915Z,34.87
2018-04-01T04:00:02.147Z,35.53
2018-04-01T04:02:31.068Z,35.03
2018-04-01T04:04:59.819Z,34.97
2018-04-01T04:07:28.427Z,34.50
2018-04-01T04:09:57.219Z,37.90
2018-04-01T04:12:25.746Z,36.53
2018-04-01T04:14:54.374Z,37.13
2018-04-01T04:17:24.619Z,37.67
2018-04-01T04:19:53.846Z,37.90
2018-04-01T04:22:22.283Z,36.37
2018-04-01T04:24:50.739Z,39.97
2018-04-01T04:27:19.716Z,34.63
2018-04-01T04:29:48.465Z,38.50
2018-04-01T04:32:17.727Z,38.27
2018-04-01T04:34:46.518Z,35.47
2018-04-01T04:37:14.966Z,36.20
2018-04-01T04:39:43.557Z,38.07
2018-04-01T04:42:12.991Z,37.87
2018-04-01T04:44:41.443Z,41.23
2018-04-01T04:47:09.927Z,40.10
2018-04-01T04:49:38.779Z,37.43
2018-04-01T04:52:07.613Z,36.87
2018-04-01T04:54:36.207Z,37.17
2018-04-01T04:57:04.736Z,37.80
2018-04-01T04:59:33.990Z,37.23
2018-04-01T05:02:03.536Z,39.00
2018-04-01T05:04:31.999Z,39.30
2018-04-01T05:07:01.243Z,38.47
2018-04-01T05:09:29.750Z,42.10
2018-04-01T05:11:59.315Z,41.27
2018-04-01T05:14:27.886Z,39.80
2018-04-01T05:16:57.130Z,41.03
2018-04-01T05:19:25.971Z,40.03
2018-04-01T05:21:54.583Z,36.43
2018-04-01T05:24:23.062Z,39.73
2018-04-01T05:26:51.772Z,37.40
2018-04-01T05:29:20.248Z,36.20
2018-04-01T05:31:48.712Z,36.77
2018-04-01T05:34:17.551Z,36.90
2018-04-01T05:36:46.768Z,36.67
2018-04-01T05:39:15.254Z,31.97
2018-04-01T05:41:43.990Z,31.67
2018-04-01T05:44:14.409Z,30.37
2018-04-01T05:46:43.635Z,32.77
2018-04-01T05:49:12.240Z,31.30
2018-04-01T05:51:40.702Z,34.73
2018-04-01T05:54:10.674Z,33.10
2018-04-01T05:56:39.130Z,28.67
2018-04-01T05:59:07.575Z,30.43
2018-04-01T06:01:36.882Z,27.37
2018-04-01T06:04:05.342Z,27.43
2018-04-01T06:06:34.074Z,27.30
2018-04-01T06:09:02.537Z,25.43
2018-04-01T06:11:31.858Z,28.40
2018-04-01T06:14:00.311Z,26.23
2018-04-01T06:16:29.778Z,26.07
2018-04-01T06:18:59.013Z,25.83
2018-04-01T06:21:28.227Z,23.50
2018-04-01T06:23:56.974Z,25.57
2018-04-01T06:26:25.497Z,23.17
2018-04-01T06:28:53.987Z,23.80
2018-04-01T06:31:22.718Z,22.93
2018-04-01T06:33:51.436Z,22.63
2018-04-01T06:36:20.650Z,21.97
2018-04-01T06:38:49.906Z,23.67
2018-04-01T06:41:19.390Z,21.03
2018-04-01T06:43:48.715Z,23.80
2018-04-01T06:46:18.011Z,21.93
2018-04-01T06:48:46.782Z,20.70
2018-04-01T06:51:16.042Z,31.30
2018-04-01T06:53:44.508Z,21.17
2018-04-01T06:56:13.010Z,19.27
2018-04-01T06:58:41.726Z,19.50
2018-04-01T07:01:12.069Z,18.07
2018-04-01T07:03:40.529Z,18.37
2018-04-01T07:06:10.390Z,20.07
2018-04-01T07:08:39.077Z,19.83
2018-04-01T07:11:07.582Z,17.43
2018-04-01T07:13:37.265Z,19.23
2018-04-01T07:16:05.907Z,17.30
2018-04-01T07:18:35.141Z,19.20
2018-04-01T07:21:03.895Z,20.13
2018-04-01T07:23:33.235Z,19.97
2018-04-01T07:26:01.729Z,20.80
2018-04-01T07:28:30.554Z,18.43
2018-04-01T07:30:59.006Z,17.33
2018-04-01T07:33:27.512Z,17.83
2018-04-01T07:35:55.998Z,18.07
2018-04-01T07:38:24.935Z,16.97
2018-04-01T07:40:53.400Z,18.23
2018-04-01T07:43:22.623Z,17.30
2018-04-01T07:45:51.449Z,18.50
2018-04-01T07:48:20.006Z,18.13
2018-04-01T07:50:48.474Z,18.90
2018-04-01T07:53:17.635Z,20.27
2018-04-01T07:55:46.874Z,19.23
2018-04-01T07:58:16.467Z,18.43
2018-04-01T08:00:45.236Z,20.07
2018-04-01T08:03:14.632Z,21.23
2018-04-01T08:05:44.110Z,19.37
2018-04-01T08:08:13.056Z,18.70
2018-04-01T08:10:41.713Z,19.53
2018-04-01T08:13:10.932Z,20.80
2018-04-01T08:15:39.745Z,19.97
2018-04-01T08:18:08.221Z,18.90
2018-04-01T08:20:36.743Z,20.80
2018-04-01T08:23:05.655Z,18.87
2018-04-01T08:25:34.986Z,19.10
2018-04-01T08:28:03.514Z,18.90
2018-04-01T08:30:33.095Z,19.70
2018-04-01T08:33:01.646Z,18.40
2018-04-01T08:35:32.056Z,16.87
2018-04-01T08:38:00.883Z,16.03
2018-04-01T08:40:29.395Z,18.83
2018-04-01T08:42:57.860Z,16.27
2018-04-01T08:45:26.600Z,15.23
2018-04-01T08:47:55.818Z,17.40
2018-04-01T08:50:24.258Z,19.60
2018-04-01T08:52:53.752Z,20.83
2018-04-01T08:55:22.314Z,21.70
2018-04-01T08:57:50.845Z,24.23
2018-04-01T09:00:19.634Z,22.50
2018-04-01T09:02:48.091Z,21.83
2018-04-01T09:05:17.345Z,20.63
2018-04-01T09:07:46.086Z,23.23
2018-04-01T09:10:14.556Z,20.63
2018-04-01T09:12:43.787Z,25.67
2018-04-01T09:15:12.583Z,20.93
2018-04-01T09:17:41.055Z,20.90
2018-04-01T09:20:09.503Z,20.20
2018-04-01T09:22:38.711Z,17.70
2018-04-01T09:25:08.262Z,17.40
2018-04-01T09:27:36.815Z,16.03
2018-04-01T09:30:05.303Z,16.93
2018-04-01T09:32:34.046Z,16.07
2018-04-01T09:35:02.746Z,12.37
2018-04-01T09:37:31.980Z,10.73
2018-04-01T09:40:01.095Z,10.03
2018-04-01T09:42:29.579Z,11.27
2018-04-01T09:44:58.030Z,12.17
2018-04-01T09:47:26.814Z,10.63
2018-04-01T09:49:55.289Z,9.73
2018-04-01T09:52:23.755Z,10.43
2018-04-01T09:54:53.230Z,9.30
2018-04-01T09:57:21.851Z,10.57
2018-04-01T09:59:50.651Z,8.00
2018-04-01T10:02:21.412Z,7.27
2018-04-01T10:04:55.702Z,7.43
2018-04-01T10:07:26.835Z,7.77
2018-04-01T10:09:57.186Z,7.20
2018-04-01T10:12:27.582Z,7.37
2018-04-01T10:14:58.153Z,6.90
2018-04-01T10:17:28.530Z,6.03
2018-04-01T10:19:58.996Z,6.10
2018-04-01T10:22:29.592Z,6.03
2018-04-01T10:24:59.927Z,6.33
2018-04-01T10:27:30.267Z,7.30
2018-04-01T10:30:00.894Z,6.20
2018-04-01T10:32:31.584Z,6.57
2018-04-01T10:35:02.626Z,8.37
2018-04-01T10:37:33.742Z,8.10
2018-04-01T10:40:04.211Z,6.20
2018-04-01T10:42:34.526Z,6.47
2018-04-01T10:45:05.150Z,5.30
2018-04-01T10:47:35.579Z,5.80
2018-04-01T10:50:05.975Z,6.10
2018-04-01T10:52:36.656Z,7.77
2018-04-01T10:55:05.376Z,8.03
2018-04-01T10:57:34.529Z,8.70
2018-04-01T11:00:03.119Z,11.70
2018-04-01T11:02:31.579Z,13.00
2018-04-01T11:05:00.267Z,13.90
2018-04-01T11:07:29.016Z,14.23
2018-04-01T11:09:57.513Z,13.13
2018-04-01T11:12:25.982Z,13.00
2018-04-01T11:14:54.754Z,13.10
2018-04-01T11:17:23.501Z,11.30
2018-04-01T11:19:52.736Z,11.67
2018-04-01T11:22:21.523Z,13.40
2018-04-01T11:24:49.999Z,12.23
2018-04-01T11:27:18.454Z,12.17
2018-04-01T11:29:48.342Z,13.23
2018-04-01T11:32:17.569Z,11.87
2018-04-01T11:34:46.022Z,12.83
2018-04-01T11:37:15.498Z,12.70
2018-04-01T11:39:43.960Z,12.33
2018-04-01T11:42:12.460Z,13.30
2018-04-01T11:44:41.162Z,11.77
2018-04-01T11:47:09.598Z,12.67
2018-04-01T11:49:38.040Z,14.37
2018-04-01T11:52:07.535Z,13.20
2018-04-01T11:54:36.772Z,10.30
2018-04-01T11:57:05.234Z,11.37
2018-04-01T11:59:34.070Z,10.97
2018-04-01T12:02:02.575Z,9.07
2018-04-01T12:04:31.020Z,9.33
2018-04-01T12:06:59.719Z,9.40
2018-04-01T12:09:28.200Z,8.90
2018-04-01T12:11:56.778Z,11.10
2018-04-01T12:14:25.542Z,11.57
2018-04-01T12:16:54.038Z,10.63
2018-04-01T12:19:22.685Z,10.80
2018-04-01T12:21:51.461Z,11.97
2018-04-01T12:24:19.928Z,11.27
2018-04-01T12:26:49.165Z,11.73
2018-04-01T12:29:17.894Z,11.50
2018-04-01T12:31:46.341Z,11.47
2018-04-01T12:34:14.801Z,13.57
2018-04-01T12:36:43.924Z,9.73
2018-04-01T12:39:12.622Z,10.03
2018-04-01T12:41:41.370Z,8.60
2018-04-01T12:44:09.806Z,8.77
2018-04-01T12:46:38.242Z,11.03
2018-04-01T12:49:06.695Z,7.40
2018-04-01T12:51:35.427Z,7.80
2018-04-01T12:54:03.911Z,7.77
2018-04-01T12:56:35.104Z,9.10
2018-04-01T12:59:05.223Z,8.67
2018-04-01T13:01:33.767Z,8.27
2018-04-01T13:04:02.222Z,8.60
2018-04-01T13:06:30.941Z,9.43
2018-04-01T13:08:59.418Z,7.17
2018-04-01T13:11:27.964Z,7.63
2018-04-01T13:13:56.773Z,7.63
2018-04-01T13:16:25.240Z,7.80
2018-04-01T13:18:53.953Z,7.67
2018-04-01T13:21:22.682Z,9.27
2018-04-01T13:23:51.143Z,7.90
2018-04-01T13:26:20.352Z,8.37
2018-04-01T13:28:49.835Z,8.17
2018-04-01T13:31:19.080Z,8.27
2018-04-01T13:33:47.562Z,8.30
2018-04-01T13:36:16.302Z,7.70
2018-04-01T13:38:45.522Z,8.37
2018-04-01T13:41:13.970Z,8.20
2018-04-01T13:43:42.413Z,8.50
2018-04-01T13:46:11.138Z,9.20
2018-04-01T13:48:39.653Z,8.67
2018-04-01T13:51:08.123Z,9.43
2018-04-01T13:53:37.608Z,8.50
2018-04-01T13:56:07.023Z,9.17
2018-04-01T13:58:36.295Z,8.90
2018-04-01T14:01:05.090Z,9.83
2018-04-01T14:03:33.710Z,10.83
2018-04-01T14:06:02.417Z,11.30
2018-04-01T14:08:31.254Z,11.60
2018-04-01T14:11:00.476Z,10.03
2018-04-01T14:13:29.025Z,9.93
2018-04-01T14:15:58.564Z,10.63
2018-04-01T14:18:27.742Z,12.13
2018-04-01T14:20:56.970Z,9.50
2018-04-01T14:23:25.486Z,11.00
2018-04-01T14:25:54.235Z,8.60
2018-04-01T14:28:22.702Z,8.70
2018-04-01T14:30:51.896Z,7.27
2018-04-01T14:33:20.671Z,10.37
2018-04-01T14:35:50.103Z,9.03
2018-04-01T14:38:18.562Z,9.73
2018-04-01T14:40:47.833Z,9.67
2018-04-01T14:43:16.588Z,9.93
2018-04-01T14:45:45.867Z,10.53
2018-04-01T14:48:14.582Z,10.73
2018-04-01T14:50:43.290Z,9.53
2018-04-01T14:53:11.727Z,12.17
2018-04-01T14:55:40.173Z,8.50
2018-04-01T14:58:09.639Z,8.57
2018-04-01T15:00:38.132Z,8.17
2018-04-01T15:03:06.630Z,9.43
2018-04-01T15:05:35.364Z,7.50
2018-04-01T15:08:03.794Z,8.37
2018-04-01T15:10:32.290Z,8.80
2018-04-01T15:13:00.779Z,7.17
2018-04-01T15:15:29.222Z,8.97
2018-04-01T15:17:57.943Z,9.27
2018-04-01T15:20:27.164Z,7.50
2018-04-01T15:22:56.519Z,8.40
2018-04-01T15:25:25.264Z,12.30
2018-04-01T15:27:53.714Z,7.90
2018-04-01T15:30:22.403Z,11.57
2018-04-01T15:32:51.026Z,8.70
2018-04-01T15:35:19.651Z,16.00
2018-04-01T15:37:48.885Z,9.97
2018-04-01T15:40:17.395Z,9.80
2018-04-01T15:42:46.155Z,11.63
2018-04-01T15:45:14.676Z,9.67
2018-04-01T15:47:43.135Z,9.60
2018-04-01T15:50:12.000Z,8.80
2018-04-01T15:52:40.486Z,9.90
2018-04-01T15:55:08.955Z,8.67
2018-04-01T15:57:37.673Z,10.43
2018-04-01T16:00:06.140Z,8.43
2018-04-01T16:02:34.634Z,9.87
2018-04-01T16:05:03.188Z,10.10
2018-04-01T16:07:31.933Z,8.73
2018-04-01T16:10:00.363Z,9.63
2018-04-01T16:12:28.819Z,9.17
2018-04-01T16:14:57.528Z,10.23
2018-04-01T16:17:26.281Z,10.20
2018-04-01T16:19:55.538Z,10.60
2018-04-01T16:22:24.262Z,12.17
2018-04-01T16:24:53.048Z,11.50
2018-04-01T16:27:22.275Z,9.10
2018-04-01T16:29:51.915Z,8.47
2018-04-01T16:32:20.519Z,11.00
2018-04-01T16:34:50.009Z,7.77
2018-04-01T16:37:18.461Z,7.93
2018-04-01T16:39:46.883Z,9.90
2018-04-01T16:42:15.658Z,9.07
2018-04-01T16:44:44.175Z,11.77
2018-04-01T16:47:12.683Z,11.13
2018-04-01T16:49:41.395Z,11.17
2018-04-01T16:52:09.953Z,8.70
2018-04-01T16:54:38.415Z,10.03
2018-04-01T16:57:07.122Z,8.03
2018-04-01T16:59:35.591Z,9.60
2018-04-01T17:02:04.042Z,8.63
2018-04-01T17:04:33.678Z,12.10
2018-04-01T17:07:02.129Z,9.47
2018-04-01T17:09:31.451Z,12.27
2018-04-01T17:12:00.960Z,10.47
2018-04-01T17:14:29.682Z,10.57
2018-04-01T17:16:58.169Z,12.43
2018-04-01T17:19:26.743Z,10.40
2018-04-01T17:21:55.252Z,10.43
2018-04-01T17:24:24.254Z,11.70
2018-04-01T17:26:52.734Z,15.87
2018-04-01T17:29:21.954Z,11.43
2018-04-01T17:31:50.646Z,10.83
2018-04-01T17:34:19.178Z,12.53
2018-04-01T17:36:47.673Z,11.07
2018-04-01T17:39:16.927Z,12.30
2018-04-01T17:41:45.390Z,13.27
2018-04-01T17:44:14.111Z,16.63
2018-04-01T17:46:42.834Z,14.37
2018-04-01T17:49:11.303Z,13.57
2018-04-01T17:51:40.797Z,11.53
2018-04-01T17:54:10.931Z,12.70
2018-04-01T17:56:40.193Z,13.47
2018-04-01T17:59:09.050Z,13.20
2018-04-01T18:01:37.526Z,16.60
2018-04-01T18:04:05.998Z,15.40
2018-04-01T18:06:34.691Z,12.27
2018-04-01T18:09:03.227Z,18.80
2018-04-01T18:11:31.781Z,19.10
2018-04-01T18:14:00.231Z,16.97
2018-04-01T18:16:28.701Z,16.87
2018-04-01T18:18:57.477Z,13.87
2018-04-01T18:21:26.783Z,15.63
2018-04-01T18:23:55.598Z,20.10
2018-04-01T18:26:25.386Z,12.47
2018-04-01T18:28:53.884Z,16.67
2018-04-01T18:31:22.347Z,23.27
2018-04-01T18:33:51.203Z,25.90
2018-04-01T18:36:19.659Z,28.00
2018-04-01T18:38:48.114Z,23.03
2018-04-01T18:41:17.142Z,26.30
2018-04-01T18:43:45.666Z,27.43
2018-04-01T18:46:14.219Z,27.03
2018-04-01T18:48:43.028Z,24.30
2018-04-01T18:51:12.260Z,25.03
2018-04-01T18:53:41.794Z,20.30
2018-04-01T18:56:10.945Z,20.90
2018-04-01T18:58:39.514Z,23.30
2018-04-01T19:01:07.998Z,17.80
2018-04-01T19:03:36.576Z,17.47
2018-04-01T19:06:06.055Z,20.17
2018-04-01T19:08:34.518Z,23.87
2018-04-01T19:11:02.967Z,24.50
2018-04-01T19:13:31.755Z,26.40
2018-04-01T19:16:01.833Z,26.33
2018-04-01T19:18:32.883Z,25.90
2018-04-01T19:21:03.480Z,24.43
2018-04-01T19:23:34.596Z,29.60
2018-04-01T19:26:05.336Z,28.30
2018-04-01T19:28:35.980Z,21.37
2018-04-01T19:31:07.093Z,25.40
2018-04-01T19:33:37.558Z,31.53
2018-04-01T19:36:08.418Z,29.13
2018-04-01T19:38:38.758Z,34.90
2018-04-01T19:41:09.074Z,35.40
2018-04-01T19:43:39.524Z,30.60
2018-04-01T19:46:10.194Z,44.70
2018-04-01T19:48:41.291Z,42.80
2018-04-01T19:51:11.911Z,44.63
2018-04-01T19:53:42.321Z,50.83
2018-04-01T19:56:12.987Z,48.63
2018-04-01T19:58:43.346Z,55.93
2018-04-01T20:01:14.015Z,48.83
2018-04-01T20:03:44.477Z,60.73
2018-04-01T20:06:14.870Z,56.37
2018-04-01T20:08:45.577Z,49.00
2018-04-01T20:11:15.992Z,55.77
2018-04-01T20:13:46.778Z,50.23
2018-04-01T20:16:19.018Z,51.60
2018-04-01T20:18:49.365Z,56.70
2018-04-01T20:21:19.923Z,54.20
2018-04-01T20:23:50.648Z,55.80
2018-04-01T20:26:21.092Z,58.23
2018-04-01T20:28:52.335Z,52.80
2018-04-01T20:31:23.606Z,48.23
2018-04-01T20:33:54.197Z,54.13
2018-04-01T20:36:24.904Z,52.00
2018-04-01T20:38:55.356Z,49.23
2018-04-01T20:41:26.879Z,47.87
2018-04-01T20:43:57.535Z,51.40
2018-04-01T20:46:28.238Z,50.27
2018-04-01T20:48:58.919Z,39.80
2018-04-01T20:51:29.401Z,44.47
2018-04-01T20:53:59.819Z,43.67
2018-04-01T20:56:30.210Z,38.13
2018-04-01T20:59:00.846Z,41.70
2018-04-01T21:01:31.414Z,39.83
2018-04-01T21:04:01.847Z,45.37
2018-04-01T21:06:32.609Z,48.57
2018-04-01T21:09:04.084Z,38.20
2018-04-01T21:11:34.778Z,41.70
2018-04-01T21:14:05.700Z,43.87
2018-04-01T21:16:37.225Z,37.70
2018-04-01T21:19:08.266Z,41.70
2018-04-01T21:21:41.170Z,41.53
2018-04-01T21:24:12.820Z,42.83
2018-04-01T21:26:43.587Z,36.13
2018-04-01T21:29:14.536Z,35.90
2018-04-01T21:31:45.291Z,31.73
2018-04-01T21:34:15.784Z,35.93
2018-04-01T21:36:46.320Z,37.90
2018-04-01T21:39:17.014Z,35.53
2018-04-01T21:41:47.343Z,28.97
2018-04-01T21:44:17.711Z,31.73
2018-04-01T21:46:48.622Z,32.07
2018-04-01T21:49:19.603Z,32.00
2018-04-01T21:51:50.766Z,36.53
2018-04-01T21:54:21.406Z,34.53
2018-04-01T21:56:52.260Z,34.07
2018-04-01T21:59:22.611Z,36.20
2018-04-01T22:01:53.274Z,33.67
2018-04-01T22:04:23.651Z,32.37
2018-04-01T22:06:53.984Z,32.10
2018-04-01T22:09:24.301Z,33.37
2018-04-01T22:11:55.539Z,33.07
2018-04-01T22:14:25.950Z,33.33
2018-04-01T22:16:56.371Z,35.67
2018-04-01T22:19:27.042Z,33.40
2018-04-01T22:21:58.478Z,42.53
2018-04-01T22:24:29.040Z,32.50
2018-04-01T22:26:59.809Z,39.33
2018-04-01T22:29:30.348Z,39.33
2018-04-01T22:32:01.804Z,40.27
2018-04-01T22:34:33.490Z,43.23
2018-04-01T22:37:03.985Z,43.23
2018-04-01T22:39:34.426Z,36.67
2018-04-01T22:42:04.848Z,37.10
2018-04-01T22:44:35.469Z,45.53
2018-04-01T22:47:06.015Z,33.67
2018-04-01T22:49:36.394Z,37.60
2018-04-01T22:52:07.943Z,30.77
2018-04-01T22:54:39.090Z,33.80
2018-04-01T22:57:09.739Z,33.93
2018-04-01T22:59:40.516Z,36.87
2018-04-01T23:02:11.157Z,38.53
2018-04-01T23:04:41.825Z,32.73
2018-04-01T23:07:12.325Z,32.33
2018-04-01T23:09:43.720Z,38.37
2018-04-01T23:12:14.344Z,32.50
2018-04-01T23:14:44.771Z,29.87
2018-04-01T23:17:16.013Z,36.13
2018-04-01T23:19:46.606Z,32.73
2018-04-01T23:22:17.232Z,35.07
2018-04-01T23:24:47.703Z,31.83
2018-04-01T23:27:18.383Z,28.50
2018-04-01T23:29:48.747Z,27.77
2018-04-01T23:32:19.109Z,32.43
2018-04-01T23:34:49.982Z,30.33
2018-04-01T23:37:21.127Z,37.73
2018-04-01T23:39:51.586Z,36.60
2018-04-01T23:42:21.927Z,41.00
2018-04-01T23:44:52.734Z,36.83
2018-04-01T23:47:23.050Z,32.80
2018-04-01T23:49:54.430Z,31.87
2018-04-01T23:52:24.785Z,31.00
2018-04-01T23:54:55.086Z,33.63
2018-04-01T23:57:25.806Z,34.93
2018-04-01T23:59:56.137Z,32.97
